createdAt,value
2022-08-19T00:00:22.700Z,89.61
2022-08-19T00:03:08.364Z,89.48
2022-08-19T00:05:53.667Z,90.39
2022-08-19T00:08:39.135Z,89.62
2022-08-19T00:11:28.826Z,90.42
2022-08-19T00:14:16.829Z,90.55
2022-08-19T00:17:03.435Z,90.57
2022-08-19T00:19:49.177Z,90.90
2022-08-19T00:22:34.621Z,90.64
2022-08-19T00:25:30.363Z,90.00
2022-08-19T00:28:15.922Z,91.40
2022-08-19T00:31:01.654Z,91.65
2022-08-19T00:33:46.949Z,93.22
2022-08-19T00:36:33.721Z,93.10
2022-08-19T00:39:19.137Z,93.44
2022-08-19T00:42:05.119Z,92.35
2022-08-19T00:44:51.523Z,92.78
2022-08-19T00:47:37.005Z,93.37
2022-08-19T00:50:23.074Z,93.21
2022-08-19T00:53:08.583Z,92.31
2022-08-19T00:55:57.125Z,91.07
2022-08-19T00:58:42.449Z,91.21
2022-08-19T01:01:27.711Z,91.64
2022-08-19T01:04:13.959Z,94.50
2022-08-19T01:07:00.048Z,97.61
2022-08-19T01:09:46.303Z,99.03
2022-08-19T01:12:31.565Z,99.95
2022-08-19T01:15:20.840Z,99.95
2022-08-19T01:18:09.170Z,100.00
2022-08-19T01:20:58.986Z,100.00
2022-08-19T01:23:45.858Z,100.00
2022-08-19T01:26:31.465Z,100.00
2022-08-19T01:29:18.074Z,100.00
2022-08-19T01:32:03.386Z,100.00
2022-08-19T01:34:48.845Z,100.00
2022-08-19T01:37:53.706Z,100.00
2022-08-19T01:40:40.896Z,100.00
2022-08-19T01:43:27.285Z,100.00
2022-08-19T01:46:13.371Z,100.00
2022-08-19T01:48:59.245Z,100.00
2022-08-19T01:51:44.645Z,100.00
2022-08-19T01:54:30.171Z,100.00
2022-08-19T01:57:16.528Z,100.00
2022-08-19T02:00:05.883Z,100.00
2022-08-19T02:02:57.609Z,100.00
2022-08-19T02:05:44.298Z,100.00
2022-08-19T02:08:31.162Z,100.00
2022-08-19T02:11:27.433Z,100.00
2022-08-19T02:14:12.397Z,100.00
2022-08-19T02:16:57.524Z,100.00
2022-08-19T02:19:43.028Z,100.00
2022-08-19T02:22:28.299Z,100.00
2022-08-19T02:25:15.292Z,100.00
2022-08-19T02:28:00.513Z,100.00
2022-08-19T02:30:47.789Z,100.00
2022-08-19T02:33:33.312Z,100.00
2022-08-19T02:36:20.601Z,100.00
2022-08-19T02:39:06.546Z,100.00
2022-08-19T02:41:52.963Z,100.00
2022-08-19T02:44:38.379Z,100.00
2022-08-19T02:47:23.680Z,100.00
2022-08-19T02:50:08.989Z,100.00
2022-08-19T02:52:54.241Z,100.00
2022-08-19T02:55:49.412Z,100.00
2022-08-19T02:58:34.881Z,100.00
2022-08-19T03:01:33.570Z,100.00
2022-08-19T03:04:20.124Z,100.00
2022-08-19T03:07:07.223Z,100.00
2022-08-19T03:09:56.390Z,100.00
2022-08-19T03:12:41.975Z,100.00
2022-08-19T03:15:27.227Z,100.00
2022-08-19T03:18:13.443Z,100.00
2022-08-19T03:20:58.571Z,100.00
2022-08-19T03:23:44.029Z,100.00
2022-08-19T03:26:30.048Z,100.00
2022-08-19T03:29:30.226Z,100.00
2022-08-19T03:32:32.590Z,100.00
2022-08-19T03:35:18.552Z,100.00
2022-08-19T03:38:05.491Z,100.00
2022-08-19T03:40:50.921Z,100.00
2022-08-19T03:43:38.279Z,100.00
2022-08-19T03:46:29.777Z,100.00
2022-08-19T03:49:15.388Z,100.00
2022-08-19T03:52:03.416Z,100.00
2022-08-19T03:54:48.818Z,100.00
2022-08-19T03:57:35.468Z,100.00
2022-08-19T04:00:20.771Z,100.00
2022-08-19T04:03:06.005Z,100.00
2022-08-19T04:05:51.731Z,100.00
2022-08-19T04:08:37.221Z,100.00
2022-08-19T04:11:43.014Z,100.00
2022-08-19T04:14:34.603Z,100.00
2022-08-19T04:17:20.087Z,100.00
2022-08-19T04:20:07.109Z,100.00
2022-08-19T04:22:52.732Z,100.00
2022-08-19T04:25:44.056Z,100.00
2022-08-19T04:28:29.876Z,100.00
2022-08-19T04:31:21.353Z,100.00
2022-08-19T04:34:09.077Z,100.00
2022-08-19T04:36:56.404Z,100.00
2022-08-19T04:40:02.489Z,100.00
2022-08-19T04:42:47.843Z,100.00
2022-08-19T04:45:39.620Z,100.00
2022-08-19T04:48:29.197Z,100.00
2022-08-19T04:51:16.278Z,100.00
2022-08-19T04:54:05.778Z,100.00
2022-08-19T04:56:53.439Z,100.00
2022-08-19T04:59:39.864Z,100.00
2022-08-19T05:02:25.584Z,100.00
2022-08-19T05:05:11.133Z,100.00
2022-08-19T05:07:56.924Z,100.00
2022-08-19T05:10:42.343Z,100.00
2022-08-19T05:13:28.031Z,100.00
2022-08-19T05:16:14.793Z,100.00
2022-08-19T05:19:18.576Z,100.00
2022-08-19T05:22:22.489Z,100.00
2022-08-19T05:25:14.711Z,100.00
2022-08-19T05:27:59.914Z,100.00
2022-08-19T05:30:47.534Z,100.00
2022-08-19T05:33:33.330Z,100.00
2022-08-19T05:36:20.791Z,100.00
2022-08-19T05:39:08.039Z,100.00
2022-08-19T05:42:01.578Z,100.00
2022-08-19T05:44:47.980Z,100.00
2022-08-19T05:47:33.306Z,100.00
2022-08-19T05:50:18.665Z,100.00
2022-08-19T05:53:03.832Z,100.00
2022-08-19T05:55:48.984Z,100.00
2022-08-19T05:58:36.333Z,100.00
2022-08-19T06:01:22.284Z,100.00
2022-08-19T06:04:08.039Z,100.00
2022-08-19T06:06:54.717Z,100.00
2022-08-19T06:09:41.254Z,100.00
2022-08-19T06:12:35.194Z,100.00
2022-08-19T06:15:22.945Z,100.00
2022-08-19T06:18:08.343Z,100.00
2022-08-19T06:20:56.001Z,100.00
2022-08-19T06:23:41.915Z,100.00
2022-08-19T06:26:28.531Z,100.00
2022-08-19T06:29:23.705Z,100.00
2022-08-19T06:32:09.662Z,100.00
2022-08-19T06:34:54.680Z,100.00
2022-08-19T06:37:43.389Z,100.00
2022-08-19T06:40:28.975Z,100.00
2022-08-19T06:43:16.715Z,100.00
2022-08-19T06:46:04.659Z,99.05
2022-08-19T06:48:54.177Z,99.57
2022-08-19T06:51:42.422Z,99.93
2022-08-19T06:54:30.729Z,99.22
2022-08-19T06:57:16.898Z,97.81
2022-08-19T07:00:03.446Z,98.08
2022-08-19T07:02:54.700Z,97.53
2022-08-19T07:05:45.509Z,97.79
2022-08-19T07:08:31.833Z,96.53
2022-08-19T07:11:22.122Z,95.69
2022-08-19T07:14:19.016Z,94.94
2022-08-19T07:17:08.120Z,94.34
2022-08-19T07:19:54.648Z,95.71
2022-08-19T07:22:41.043Z,96.82
2022-08-19T07:25:32.083Z,96.21
2022-08-19T07:28:24.652Z,95.98
2022-08-19T07:31:17.661Z,96.33
2022-08-19T07:34:08.199Z,95.69
2022-08-19T07:36:54.499Z,96.86
2022-08-19T07:39:40.232Z,96.45
2022-08-19T07:42:25.864Z,94.67
2022-08-19T07:45:11.516Z,93.63
2022-08-19T07:47:57.007Z,93.51
2022-08-19T07:50:42.354Z,93.13
2022-08-19T07:53:27.755Z,92.63
2022-08-19T07:56:14.596Z,91.71
2022-08-19T07:58:59.992Z,91.13
2022-08-19T08:01:45.591Z,90.75
2022-08-19T08:04:50.913Z,90.61
2022-08-19T08:07:54.829Z,91.43
2022-08-19T08:10:40.024Z,91.34
2022-08-19T08:13:28.160Z,91.82
2022-08-19T08:16:14.602Z,91.68
2022-08-19T08:19:00.241Z,91.99
2022-08-19T08:21:46.691Z,91.36
2022-08-19T08:24:31.914Z,90.29
2022-08-19T08:27:17.310Z,89.20
2022-08-19T08:30:07.524Z,88.46
2022-08-19T08:33:02.843Z,88.16
2022-08-19T08:35:48.910Z,87.66
2022-08-19T08:38:39.649Z,87.82
2022-08-19T08:41:44.897Z,88.74
2022-08-19T08:44:44.622Z,87.76
2022-08-19T08:47:42.039Z,88.04
2022-08-19T08:50:37.299Z,86.81
2022-08-19T08:53:29.581Z,86.89
2022-08-19T08:56:18.865Z,87.66
2022-08-19T08:59:10.939Z,89.60
2022-08-19T09:01:56.449Z,89.23
2022-08-19T09:04:41.910Z,89.00
2022-08-19T09:07:39.933Z,88.51
2022-08-19T09:10:54.967Z,87.48
2022-08-19T09:14:01.323Z,87.66
2022-08-19T09:16:46.498Z,86.16
2022-08-19T09:19:31.858Z,84.78
2022-08-19T09:22:25.380Z,84.19
2022-08-19T09:25:14.939Z,83.66
2022-08-19T09:28:05.623Z,83.05
2022-08-19T09:30:57.914Z,82.49
2022-08-19T09:33:45.905Z,82.39
2022-08-19T09:36:36.997Z,82.26
2022-08-19T09:39:22.934Z,83.07
2022-08-19T09:42:16.431Z,83.98
2022-08-19T09:45:10.228Z,83.43
2022-08-19T09:47:55.880Z,82.87
2022-08-19T09:50:51.686Z,81.56
2022-08-19T09:53:39.719Z,80.64
2022-08-19T09:56:25.680Z,79.00
2022-08-19T09:59:15.457Z,79.12
2022-08-19T10:02:00.400Z,78.87
2022-08-19T10:05:07.886Z,80.55
2022-08-19T10:07:53.400Z,80.64
2022-08-19T10:10:39.049Z,80.79
2022-08-19T10:13:30.047Z,81.31
2022-08-19T10:16:20.903Z,81.89
2022-08-19T10:19:06.698Z,82.17
2022-08-19T10:21:51.887Z,80.74
2022-08-19T10:24:37.599Z,80.06
2022-08-19T10:27:23.141Z,80.91
2022-08-19T10:30:10.045Z,81.31
2022-08-19T10:32:56.723Z,83.07
2022-08-19T10:35:42.599Z,83.30
2022-08-19T10:38:51.248Z,83.64
2022-08-19T10:41:41.151Z,82.08
2022-08-19T10:44:32.060Z,81.94
2022-08-19T10:47:25.005Z,82.40
2022-08-19T10:50:30.085Z,82.55
2022-08-19T10:53:15.620Z,83.07
2022-08-19T10:56:19.404Z,83.48
2022-08-19T10:59:05.580Z,83.71
2022-08-19T11:01:51.943Z,83.37
2022-08-19T11:04:41.107Z,83.03
2022-08-19T11:07:27.393Z,83.94
2022-08-19T11:10:20.893Z,84.19
2022-08-19T11:13:06.742Z,84.00
2022-08-19T11:16:07.729Z,85.05
2022-08-19T11:18:59.159Z,85.80
2022-08-19T11:21:47.246Z,86.89
2022-08-19T11:24:35.390Z,86.38
2022-08-19T11:27:20.576Z,85.90
2022-08-19T11:30:08.268Z,85.68
2022-08-19T11:32:58.293Z,84.99
2022-08-19T11:35:43.530Z,83.26
2022-08-19T11:38:29.016Z,82.80
2022-08-19T11:41:17.841Z,83.06
2022-08-19T11:44:05.518Z,83.19
2022-08-19T11:46:51.022Z,83.60
2022-08-19T11:49:37.095Z,83.34
2022-08-19T11:52:22.285Z,83.60
2022-08-19T11:55:08.614Z,83.56
2022-08-19T11:57:54.353Z,84.20
2022-08-19T12:00:40.649Z,84.57
2022-08-19T12:03:28.911Z,83.74
2022-08-19T12:06:17.401Z,83.47
2022-08-19T12:09:06.583Z,83.65
2022-08-19T12:11:51.978Z,83.68
2022-08-19T12:14:37.650Z,83.67
2022-08-19T12:17:24.180Z,83.18
2022-08-19T12:20:12.128Z,82.32
2022-08-19T12:22:57.853Z,81.28
2022-08-19T12:25:52.687Z,81.13
2022-08-19T12:28:38.807Z,80.65
2022-08-19T12:31:23.915Z,80.95
2022-08-19T12:34:09.230Z,80.67
2022-08-19T12:36:55.436Z,80.40
2022-08-19T12:39:45.307Z,78.27
2022-08-19T12:42:31.448Z,77.53
2022-08-19T12:45:16.736Z,75.63
2022-08-19T12:48:02.000Z,74.81
2022-08-19T12:51:13.281Z,73.50
2022-08-19T12:53:58.638Z,73.99
2022-08-19T12:56:44.769Z,72.46
2022-08-19T12:59:30.011Z,71.14
2022-08-19T13:02:15.366Z,71.79
2022-08-19T13:05:00.664Z,71.34
2022-08-19T13:07:46.877Z,72.93
2022-08-19T13:10:35.713Z,72.87
2022-08-19T13:13:22.839Z,71.27
2022-08-19T13:16:12.785Z,71.37
2022-08-19T13:18:58.972Z,71.49
2022-08-19T13:21:44.554Z,71.45
2022-08-19T13:24:33.873Z,72.08
2022-08-19T13:27:19.524Z,73.01
2022-08-19T13:30:25.766Z,73.25
2022-08-19T13:33:16.844Z,73.90
2022-08-19T13:36:02.500Z,73.63
2022-08-19T13:38:47.547Z,73.44
2022-08-19T13:41:33.056Z,73.74
2022-08-19T13:44:19.509Z,74.14
2022-08-19T13:47:07.843Z,73.80
2022-08-19T13:49:53.572Z,73.76
2022-08-19T13:52:40.194Z,73.79
2022-08-19T13:55:26.163Z,73.79
2022-08-19T13:58:12.724Z,74.50
2022-08-19T14:01:00.109Z,74.41
2022-08-19T14:03:45.601Z,74.38
2022-08-19T14:06:33.722Z,73.79
2022-08-19T14:09:19.198Z,73.65
2022-08-19T14:12:05.658Z,74.04
2022-08-19T14:14:50.857Z,73.75
2022-08-19T14:17:39.638Z,74.00
2022-08-19T14:20:26.447Z,74.64
2022-08-19T14:23:14.617Z,74.83
2022-08-19T14:26:08.911Z,74.38
2022-08-19T14:28:58.205Z,74.00
2022-08-19T14:31:45.961Z,73.93
2022-08-19T14:34:32.522Z,74.81
2022-08-19T14:37:17.931Z,74.78
2022-08-19T14:40:04.929Z,74.77
2022-08-19T14:42:50.358Z,75.20
2022-08-19T14:45:41.296Z,75.80
2022-08-19T14:48:29.121Z,77.77
2022-08-19T14:51:15.183Z,78.46
2022-08-19T14:54:00.658Z,78.68
2022-08-19T14:56:46.013Z,78.39
2022-08-19T14:59:31.059Z,78.25
2022-08-19T15:02:33.750Z,77.72
2022-08-19T15:05:21.919Z,77.21
2022-08-19T15:08:09.886Z,76.53
2022-08-19T15:10:56.964Z,76.68
2022-08-19T15:13:43.710Z,77.47
2022-08-19T15:16:29.211Z,76.93
2022-08-19T15:22:17.009Z,77.51
2022-08-19T15:25:07.610Z,77.38
2022-08-19T15:28:12.925Z,77.31
2022-08-19T15:30:58.355Z,77.04
2022-08-19T15:33:45.099Z,77.41
2022-08-19T15:36:30.547Z,76.72
2022-08-19T15:39:15.742Z,76.79
2022-08-19T15:42:01.208Z,77.32
2022-08-19T15:44:47.604Z,78.46
2022-08-19T15:47:34.683Z,79.37
2022-08-19T15:50:21.411Z,80.25
2022-08-19T15:53:10.158Z,80.58
2022-08-19T15:55:55.584Z,80.92
2022-08-19T15:58:59.456Z,81.71
2022-08-19T16:02:03.418Z,81.96
2022-08-19T16:05:07.681Z,82.25
2022-08-19T16:07:53.202Z,82.81
2022-08-19T16:10:39.818Z,82.76
2022-08-19T16:13:27.347Z,83.42
2022-08-19T16:16:12.620Z,83.39
2022-08-19T16:19:00.896Z,83.04
2022-08-19T16:21:49.875Z,82.36
2022-08-19T16:24:35.506Z,83.01
2022-08-19T16:27:22.421Z,83.93
2022-08-19T16:30:08.809Z,83.48
2022-08-19T16:32:54.006Z,82.80
2022-08-19T16:35:39.338Z,84.14
2022-08-19T16:38:25.682Z,84.42
2022-08-19T16:41:11.147Z,84.45
2022-08-19T16:43:56.587Z,84.41
2022-08-19T16:46:42.457Z,83.67
2022-08-19T16:49:53.947Z,83.81
2022-08-19T16:52:36.271Z,84.22
2022-08-19T16:55:24.401Z,86.00
2022-08-19T16:58:09.660Z,86.88
2022-08-19T17:01:03.422Z,87.73
2022-08-19T17:03:51.949Z,87.79
2022-08-19T17:06:39.499Z,87.86
2022-08-19T17:09:25.808Z,87.56
2022-08-19T17:12:12.551Z,87.10
2022-08-19T17:14:58.432Z,87.51
2022-08-19T17:17:43.808Z,87.82
2022-08-19T17:20:31.006Z,88.21
2022-08-19T17:23:16.829Z,88.14
2022-08-19T17:26:02.315Z,88.94
2022-08-19T17:28:50.412Z,88.46
2022-08-19T17:31:35.894Z,87.89
2022-08-19T17:34:21.185Z,87.79
2022-08-19T17:37:06.100Z,87.32
2022-08-19T17:39:51.477Z,87.86
2022-08-19T17:42:37.338Z,88.28
2022-08-19T17:45:23.068Z,88.06
2022-08-19T17:48:09.590Z,87.77
2022-08-19T17:50:54.746Z,87.41
2022-08-19T17:53:40.977Z,87.74
2022-08-19T17:56:28.679Z,86.48
2022-08-19T17:59:15.085Z,86.66
2022-08-19T18:02:00.590Z,86.43
2022-08-19T18:04:48.825Z,86.64
2022-08-19T18:07:34.572Z,86.95
2022-08-19T18:10:20.911Z,87.66
2022-08-19T18:13:16.913Z,87.47
2022-08-19T18:16:04.195Z,87.68
2022-08-19T18:18:49.541Z,88.20
2022-08-19T18:21:36.086Z,88.05
2022-08-19T18:24:21.679Z,88.94
2022-08-19T18:27:07.289Z,89.13
2022-08-19T18:29:59.405Z,89.16
2022-08-19T18:32:46.779Z,89.72
2022-08-19T18:35:32.685Z,89.83
2022-08-19T18:38:39.275Z,90.40
2022-08-19T18:41:43.428Z,91.48
2022-08-19T18:44:47.305Z,92.28
2022-08-19T18:47:51.330Z,92.40
2022-08-19T18:50:39.811Z,92.86
2022-08-19T18:53:30.385Z,92.42
2022-08-19T18:56:17.685Z,92.35
2022-08-19T18:59:03.121Z,92.48
2022-08-19T19:01:52.495Z,91.99
2022-08-19T19:04:38.927Z,91.85
2022-08-19T19:07:24.363Z,92.63
2022-08-19T19:10:09.930Z,92.93
2022-08-19T19:12:55.268Z,93.17
2022-08-19T19:15:43.451Z,93.46
2022-08-19T19:18:29.827Z,93.52
2022-08-19T19:21:14.986Z,92.78
2022-08-19T19:24:01.423Z,93.14
2022-08-19T19:26:48.870Z,93.04
2022-08-19T19:29:38.190Z,92.93
2022-08-19T19:32:27.089Z,93.19
2022-08-19T19:35:13.166Z,93.11
2022-08-19T19:38:06.565Z,92.71
2022-08-19T19:40:51.859Z,92.82
2022-08-19T19:43:40.919Z,92.83
2022-08-19T19:46:30.815Z,93.10
2022-08-19T19:49:16.745Z,92.89
2022-08-19T19:52:04.919Z,92.49
2022-08-19T19:54:54.197Z,92.69
2022-08-19T19:57:42.234Z,92.69
2022-08-19T20:00:36.953Z,92.43
2022-08-19T20:03:22.241Z,92.42
2022-08-19T20:06:12.497Z,92.06
2022-08-19T20:09:17.560Z,91.84
2022-08-19T20:12:08.320Z,92.22
2022-08-19T20:14:55.942Z,92.63
2022-08-19T20:17:42.665Z,92.76
2022-08-19T20:20:31.918Z,92.38
2022-08-19T20:23:25.873Z,92.38
2022-08-19T20:26:32.481Z,92.66
2022-08-19T20:29:39.300Z,92.82
2022-08-19T20:32:26.090Z,93.33
2022-08-19T20:35:13.152Z,93.59
2022-08-19T20:38:00.818Z,94.01
2022-08-19T20:40:46.442Z,94.40
2022-08-19T20:43:31.991Z,94.19
2022-08-19T20:46:17.566Z,93.43
2022-08-19T20:49:02.909Z,93.98
2022-08-19T20:51:51.059Z,94.14
2022-08-19T20:54:36.316Z,93.95
2022-08-19T20:57:21.968Z,94.61
2022-08-19T21:00:12.396Z,95.09
2022-08-19T21:03:02.794Z,94.64
2022-08-19T21:05:47.972Z,95.11
2022-08-19T21:08:33.700Z,94.51
2022-08-19T21:11:20.725Z,95.34
2022-08-19T21:14:06.741Z,95.76
2022-08-19T21:16:52.053Z,96.59
2022-08-19T21:19:40.264Z,96.96
2022-08-19T21:22:27.926Z,97.06
2022-08-19T21:25:13.199Z,97.25
2022-08-19T21:27:58.633Z,96.72
2022-08-19T21:30:44.226Z,96.55
2022-08-19T21:33:31.991Z,96.52
2022-08-19T21:36:17.591Z,96.35
2022-08-19T21:39:04.380Z,95.61
2022-08-19T21:41:49.526Z,95.53
2022-08-19T21:44:35.471Z,95.55
2022-08-19T21:47:22.979Z,94.98
2022-08-19T21:50:08.927Z,95.04
2022-08-19T21:52:54.876Z,94.95
2022-08-19T21:55:40.392Z,94.96
2022-08-19T21:58:28.277Z,94.78
2022-08-19T22:01:16.183Z,95.17
2022-08-19T22:04:01.548Z,95.28
2022-08-19T22:06:47.456Z,95.21
2022-08-19T22:09:33.087Z,95.02
2022-08-19T22:12:33.907Z,94.86
2022-08-19T22:15:21.514Z,95.14
2022-08-19T22:18:08.673Z,95.16
2022-08-19T22:20:54.656Z,94.82
2022-08-19T22:23:41.443Z,94.68
2022-08-19T22:26:27.104Z,94.61
2022-08-19T22:29:15.708Z,95.06
2022-08-19T22:32:23.018Z,95.67
2022-08-19T22:35:08.544Z,95.99
2022-08-19T22:37:53.958Z,95.84
2022-08-19T22:40:42.235Z,95.43
2022-08-19T22:43:30.436Z,95.85
2022-08-19T22:46:17.703Z,95.65
2022-08-19T22:49:03.683Z,95.51
2022-08-19T22:52:07.373Z,95.67
2022-08-19T22:54:56.768Z,96.31
2022-08-19T22:57:42.073Z,96.06
2022-08-19T23:00:28.808Z,96.05
2022-08-19T23:03:13.965Z,96.20
2022-08-19T23:05:59.100Z,95.80
2022-08-19T23:08:44.517Z,95.21
2022-08-19T23:11:29.975Z,95.41
2022-08-19T23:14:21.887Z,95.04
2022-08-19T23:17:06.889Z,94.55
2022-08-19T23:19:52.714Z,94.85
2022-08-19T23:22:39.482Z,94.92
2022-08-19T23:25:27.559Z,95.31
2022-08-19T23:28:31.968Z,95.25
2022-08-19T23:31:17.171Z,95.48
2022-08-19T23:34:03.423Z,95.34
2022-08-19T23:36:50.353Z,95.33
2022-08-19T23:39:38.294Z,95.39
2022-08-19T23:42:25.958Z,95.58
2022-08-19T23:45:11.402Z,95.87
2022-08-19T23:47:58.000Z,95.62
2022-08-19T23:50:44.876Z,95.65
2022-08-19T23:53:30.489Z,95.05
2022-08-19T23:56:15.969Z,94.81
2022-08-19T23:59:01.314Z,94.93
